Time;durP1;ratioP1;P1;durP2;ratioP2;P2;SDS_P1;SDS_P2;PMS_P1;PMS_P2;Temp;Humidity;BMP_temperature;BMP_pressure;BME280_temperature;BME280_humidity;BME280_pressure;Samples;Min_cycle;Max_cycle;Signal;HPM_P1;HPM_P2
2020/12/30 00:01:32;;;;;;;5.93;1.07;;;5.40;99.90;;;;;;4479861;27;656850;-60
2020/12/30 00:04:19;;;;;;;4.17;1.40;;;5.70;99.90;;;;;;4491447;27;656277;-59
2020/12/30 00:07:06;;;;;;;3.67;1.00;;;5.70;99.90;;;;;;4492572;27;656940;-59
2020/12/30 00:09:53;;;;;;;3.13;1.10;;;5.70;99.90;;;;;;4479892;27;655748;-59
2020/12/30 00:12:41;;;;;;;3.25;1.60;;;5.80;99.90;;;;;;4485281;27;657385;-58
2020/12/30 00:15:28;;;;;;;2.33;1.30;;;5.80;99.90;;;;;;4479873;27;655411;-60
2020/12/30 00:18:15;;;;;;;3.07;1.20;;;5.60;99.90;;;;;;4496183;27;657180;-59
2020/12/30 00:21:02;;;;;;;4.73;1.37;;;5.60;99.90;;;;;;4470020;27;655505;-60
2020/12/30 00:23:49;;;;;;;2.63;1.20;;;5.50;99.90;;;;;;4497110;27;655383;-58
2020/12/30 00:26:36;;;;;;;4.53;1.27;;;5.40;99.90;;;;;;4485152;27;655869;-59
2020/12/30 00:29:24;;;;;;;0.77;0.53;;;5.40;99.90;;;;;;4487023;27;655725;-59
2020/12/30 00:32:11;;;;;;;2.00;0.90;;;5.30;99.90;;;;;;4487917;27;656355;-59
2020/12/30 00:34:58;;;;;;;3.87;1.20;;;5.30;99.90;;;;;;4474509;27;655512;-60
2020/12/30 00:37:45;;;;;;;4.33;1.60;;;5.30;99.90;;;;;;4484277;27;656687;-59
2020/12/30 00:40:32;;;;;;;3.40;1.90;;;5.20;99.90;;;;;;4483230;27;656213;-60
2020/12/30 00:43:19;;;;;;;22.70;6.27;;;5.10;99.90;;;;;;4472769;28;657063;-59
2020/12/30 00:46:07;;;;;;;134.30;26.37;;;5.00;99.90;;;;;;4470002;28;657037;-59
2020/12/30 00:48:54;;;;;;;34.27;8.40;;;4.80;99.90;;;;;;4445927;28;660002;-59
2020/12/30 00:51:41;;;;;;;7.00;2.63;;;4.80;99.90;;;;;;4500125;27;656954;-59
2020/12/30 00:54:27;;;;;;;10.70;3.67;;;4.80;99.90;;;;;;4489251;27;656457;-60
2020/12/30 00:57:14;;;;;;;21.57;6.53;;;4.70;99.90;;;;;;4506990;27;658057;-59
2020/12/30 01:00:01;;;;;;;26.80;8.77;;;4.70;99.90;;;;;;4506737;27;657175;-59
2020/12/30 01:02:49;;;;;;;55.07;20.13;;;4.60;99.90;;;;;;4486192;27;656583;-59
2020/12/30 01:05:36;;;;;;;26.97;10.00;;;4.60;99.90;;;;;;4505275;27;657376;-59
2020/12/30 01:08:24;;;;;;;24.87;7.90;;;4.50;99.90;;;;;;4470787;27;659658;-59
2020/12/30 01:11:11;;;;;;;19.27;8.27;;;4.50;99.90;;;;;;4486590;27;656766;-59
2020/12/30 01:13:58;;;;;;;35.27;11.60;;;4.50;99.90;;;;;;4478793;27;656804;-60
2020/12/30 01:16:49;;;;;;;32.87;10.60;;;4.40;99.90;;;;;;4497858;27;658134;-60
2020/12/30 01:19:36;;;;;;;24.30;7.83;;;4.40;99.90;;;;;;4472698;27;657813;-59
2020/12/30 01:22:23;;;;;;;18.33;7.50;;;4.30;99.90;;;;;;4477537;27;657453;-60
2020/12/30 01:25:10;;;;;;;13.30;5.50;;;4.30;99.90;;;;;;4497090;27;658369;-59
2020/12/30 01:27:57;;;;;;;11.60;6.07;;;4.30;99.90;;;;;;4474324;27;656526;-60
2020/12/30 01:30:44;;;;;;;13.93;5.13;;;4.20;99.90;;;;;;4500894;27;658132;-59
2020/12/30 01:33:31;;;;;;;10.38;3.88;;;4.20;99.90;;;;;;4491696;27;657003;-59
2020/12/30 01:36:19;;;;;;;7.40;4.10;;;4.20;99.90;;;;;;4464040;27;656542;-59
2020/12/30 01:39:06;;;;;;;9.20;4.83;;;4.20;99.90;;;;;;4493846;27;655962;-59
2020/12/30 01:41:53;;;;;;;13.53;5.27;;;4.10;99.90;;;;;;4465010;27;655779;-60
2020/12/30 01:44:40;;;;;;;14.27;6.13;;;4.10;99.90;;;;;;4492802;27;657538;-59
2020/12/30 01:47:28;;;;;;;16.70;6.40;;;4.10;99.90;;;;;;4473673;27;658102;-61
2020/12/30 01:50:15;;;;;;;21.77;9.60;;;4.10;99.90;;;;;;4497804;27;658004;-59
2020/12/30 01:53:03;;;;;;;19.03;8.20;;;4.10;99.90;;;;;;4469926;27;656234;-60
2020/12/30 01:55:50;;;;;;;26.92;11.27;;;4.00;99.90;;;;;;4476412;27;657179;-59
2020/12/30 01:58:37;;;;;;;62.50;19.37;;;4.00;99.90;;;;;;4450972;27;657377;-61
2020/12/30 02:01:27;;;;;;;76.87;21.87;;;3.90;99.90;;;;;;4473322;27;657747;-60
2020/12/30 02:04:16;;;;;;;79.33;22.10;;;3.90;99.90;;;;;;4449365;27;658911;-59
2020/12/30 02:07:03;;;;;;;71.80;10.23;;;4.00;99.90;;;;;;4449365;27;658457;-60
2020/12/30 02:09:51;;;;;;;30.63;10.20;;;3.90;99.90;;;;;;4468651;27;658896;-60
2020/12/30 02:12:38;;;;;;;46.25;14.63;;;3.90;99.90;;;;;;4445040;28;657531;-60
2020/12/30 02:15:28;;;;;;;66.73;24.70;;;3.80;99.90;;;;;;4473140;28;659655;-59
2020/12/30 02:18:15;;;;;;;56.83;23.63;;;3.70;99.90;;;;;;4446446;28;658360;-59
2020/12/30 02:21:02;;;;;;;57.63;23.23;;;3.80;99.90;;;;;;4450761;28;657599;-61
2020/12/30 02:23:49;;;;;;;41.97;18.27;;;3.70;99.90;;;;;;4464113;28;659015;-60
2020/12/30 02:26:37;;;;;;;48.00;22.37;;;3.80;99.90;;;;;;4469373;28;657520;-59
2020/12/30 02:29:24;;;;;;;35.33;16.87;;;3.80;99.90;;;;;;4440858;28;659611;-59
2020/12/30 02:32:11;;;;;;;30.67;15.53;;;3.70;99.90;;;;;;4465809;28;658232;-59
2020/12/30 02:34:58;;;;;;;55.60;19.17;;;3.80;99.90;;;;;;4445171;28;657715;-60
2020/12/30 02:37:45;;;;;;;34.90;14.70;;;3.70;99.90;;;;;;4473557;28;659386;-59
2020/12/30 02:40:32;;;;;;;23.87;10.50;;;3.70;99.90;;;;;;4459949;28;658528;-61
2020/12/30 02:43:20;;;;;;;21.57;11.53;;;3.70;99.90;;;;;;4468796;28;658093;-59
2020/12/30 02:46:07;;;;;;;35.33;14.80;;;3.70;99.90;;;;;;4457093;28;657514;-61
2020/12/30 02:48:54;;;;;;;32.37;12.73;;;3.70;99.90;;;;;;4465716;28;657981;-59
2020/12/30 02:51:42;;;;;;;33.60;15.23;;;3.70;99.90;;;;;;4468636;28;658016;-60
2020/12/30 02:54:29;;;;;;;33.97;17.40;;;3.70;99.90;;;;;;4439118;28;659213;-60
2020/12/30 02:57:16;;;;;;;37.87;18.80;;;3.70;99.90;;;;;;4469157;28;657784;-59
2020/12/30 03:00:04;;;;;;;33.80;14.33;;;3.70;99.90;;;;;;4442558;28;658741;-60
2020/12/30 03:02:51;;;;;;;25.93;12.43;;;3.80;99.90;;;;;;4468870;28;657474;-59
2020/12/30 03:05:37;;;;;;;24.97;12.07;;;3.80;99.90;;;;;;4449761;28;657896;-61
2020/12/30 03:08:24;;;;;;;42.87;17.43;;;3.80;99.90;;;;;;4468478;28;658942;-60
2020/12/30 03:11:12;;;;;;;51.23;17.33;;;3.70;99.90;;;;;;4454104;28;658136;-60
2020/12/30 03:13:59;;;;;;;30.23;13.88;;;3.70;99.90;;;;;;4473074;28;657161;-59
2020/12/30 03:16:47;;;;;;;25.67;13.03;;;3.70;99.90;;;;;;4468681;28;657950;-59
2020/12/30 03:19:34;;;;;;;27.13;14.90;;;3.70;99.90;;;;;;4444302;28;659271;-59
2020/12/30 03:22:21;;;;;;;28.20;12.43;;;3.70;99.90;;;;;;4469557;27;658553;-59
2020/12/30 03:25:08;;;;;;;22.20;12.20;;;3.70;99.90;;;;;;4450277;27;657580;-60
2020/12/30 03:27:56;;;;;;;34.47;15.27;;;3.60;99.90;;;;;;4467908;27;658043;-60
2020/12/30 03:30:43;;;;;;;31.80;14.17;;;3.60;99.90;;;;;;4452885;27;657678;-60
2020/12/30 03:33:31;;;;;;;26.57;13.40;;;3.60;99.90;;;;;;4471922;27;658338;-60
2020/12/30 03:36:18;;;;;;;25.63;12.57;;;3.60;99.90;;;;;;4445544;27;657517;-60
2020/12/30 03:39:05;;;;;;;23.83;12.73;;;3.60;99.90;;;;;;4470386;27;657928;-60
2020/12/30 03:41:52;;;;;;;24.17;12.07;;;3.50;99.90;;;;;;4451622;27;657680;-61
2020/12/30 03:44:39;;;;;;;28.97;12.63;;;3.60;99.90;;;;;;4475843;27;657401;-59
2020/12/30 03:47:29;;;;;;;26.93;11.80;;;3.50;99.90;;;;;;4466067;27;657834;-60
2020/12/30 03:50:17;;;;;;;19.10;9.93;;;3.60;99.90;;;;;;4448175;27;657702;-60
2020/12/30 03:53:04;;;;;;;51.70;9.20;;;3.50;99.90;;;;;;4450133;27;658184;-59
2020/12/30 03:55:51;;;;;;;20.73;9.37;;;3.50;99.90;;;;;;4477557;27;657237;-60
2020/12/30 03:58:38;;;;;;;21.17;9.47;;;3.50;99.90;;;;;;4486163;27;657872;-59
2020/12/30 04:01:25;;;;;;;31.33;11.20;;;3.50;99.90;;;;;;4499136;27;658218;-60
2020/12/30 04:04:13;;;;;;;28.07;10.77;;;3.50;99.90;;;;;;4482079;27;658360;-61
2020/12/30 04:07:01;;;;;;;27.23;9.37;;;3.60;99.90;;;;;;4494953;27;658350;-59
2020/12/30 04:09:48;;;;;;;28.17;9.60;;;3.50;99.90;;;;;;4463582;27;656532;-60
2020/12/30 04:12:35;;;;;;;27.37;10.43;;;3.50;99.90;;;;;;4492780;27;658536;-60
2020/12/30 04:15:22;;;;;;;32.57;11.57;;;3.50;99.90;;;;;;4491332;27;657948;-61
2020/12/30 04:18:09;;;;;;;34.07;12.87;;;3.50;99.90;;;;;;4497034;27;659109;-60
2020/12/30 04:20:56;;;;;;;50.93;17.47;;;3.50;99.90;;;;;;4495930;27;657630;-59
2020/12/30 04:23:44;;;;;;;43.47;13.13;;;3.60;99.90;;;;;;4481965;27;657507;-60
2020/12/30 04:26:31;;;;;;;31.03;10.40;;;3.70;99.90;;;;;;4488593;27;658005;-60
2020/12/30 04:29:18;;;;;;;17.00;7.50;;;3.70;99.90;;;;;;4477297;27;657633;-59
2020/12/30 04:32:04;;;;;;;24.20;8.60;;;3.80;99.90;;;;;;4490125;27;658096;-59
2020/12/30 04:34:52;;;;;;;19.60;7.90;;;3.90;99.90;;;;;;4495115;27;656259;-61
2020/12/30 04:37:39;;;;;;;18.00;7.20;;;3.90;99.90;;;;;;4493168;27;657156;-60
2020/12/30 04:40:27;;;;;;;14.43;6.57;;;4.00;99.90;;;;;;4496854;27;657277;-59
2020/12/30 04:43:14;;;;;;;12.43;4.60;;;4.00;99.90;;;;;;4471904;27;657913;-60
2020/12/30 04:46:01;;;;;;;10.53;5.07;;;4.00;99.90;;;;;;4496323;27;657392;-59
2020/12/30 04:48:48;;;;;;;11.43;4.90;;;4.00;99.90;;;;;;4470378;27;656998;-59
2020/12/30 04:51:35;;;;;;;18.70;8.20;;;3.90;99.90;;;;;;4494614;27;657676;-60
2020/12/30 04:54:23;;;;;;;22.47;10.03;;;3.90;99.90;;;;;;4463811;27;657153;-61
2020/12/30 04:57:11;;;;;;;20.53;8.20;;;3.90;99.90;;;;;;4480578;27;658842;-60
2020/12/30 04:59:58;;;;;;;17.70;6.97;;;3.80;99.90;;;;;;4470096;27;656551;-61
2020/12/30 05:02:49;;;;;;;16.27;7.03;;;3.80;99.90;;;;;;4492391;27;657769;-59
2020/12/30 05:05:37;;;;;;;18.10;7.23;;;3.80;99.90;;;;;;4465549;27;657400;-59
2020/12/30 05:08:24;;;;;;;18.73;8.50;;;3.80;99.90;;;;;;4464939;27;659091;-59
2020/12/30 05:11:11;;;;;;;24.43;9.47;;;3.80;99.90;;;;;;4479234;27;657105;-60
2020/12/30 05:13:59;;;;;;;18.30;7.63;;;3.80;99.90;;;;;;4475985;27;657105;-60
2020/12/30 05:16:46;;;;;;;13.83;5.60;;;3.80;99.90;;;;;;4488392;27;656308;-60
2020/12/30 05:19:33;;;;;;;11.13;4.40;;;3.90;99.90;;;;;;4479449;27;656484;-60
2020/12/30 05:22:20;;;;;;;9.83;4.77;;;4.00;99.90;;;;;;4481752;27;656941;-60
2020/12/30 05:25:07;;;;;;;11.57;5.87;;;4.00;99.90;;;;;;4483685;27;656448;-62
2020/12/30 05:27:54;;;;;;;8.17;4.10;;;3.90;99.90;;;;;;4493436;27;656204;-59
2020/12/30 05:30:43;;;;;;;9.20;4.65;;;3.90;99.90;;;;;;4498607;27;656409;-59
2020/12/30 05:33:32;;;;;;;9.07;4.53;;;4.00;99.90;;;;;;4474161;27;657198;-60
2020/12/30 05:36:19;;;;;;;32.20;10.70;;;4.00;99.90;;;;;;4476170;27;656610;-59
2020/12/30 05:39:05;;;;;;;31.30;12.67;;;4.00;99.90;;;;;;4487937;27;658614;-59
2020/12/30 05:41:52;;;;;;;23.20;10.43;;;3.90;99.90;;;;;;4475921;27;657405;-61
2020/12/30 05:44:40;;;;;;;68.97;22.07;;;3.90;99.90;;;;;;4488559;27;658559;-60
2020/12/30 05:47:28;;;;;;;104.83;29.90;;;4.00;99.90;;;;;;4487521;27;657811;-62
2020/12/30 05:50:22;;;;;;;102.70;29.90;;;3.90;99.90;;;;;;4498241;27;658891;-59
2020/12/30 05:53:13;;;;;;;45.97;13.97;;;3.90;99.90;;;;;;4441155;27;660061;-59
2020/12/30 05:56:10;;;;;;;28.67;10.90;;;3.80;99.90;;;;;;4471437;27;658847;-59
2020/12/30 05:58:57;;;;;;;51.47;17.47;;;3.80;99.90;;;;;;4448459;27;658181;-60
2020/12/30 06:01:44;;;;;;;72.35;21.42;;;3.70;99.90;;;;;;4498990;27;657439;-60
2020/12/30 06:04:32;;;;;;;98.63;28.23;;;3.70;99.90;;;;;;4480196;27;657811;-60
2020/12/30 06:07:20;;;;;;;31.60;12.93;;;3.60;99.90;;;;;;4464902;27;658654;-60
2020/12/30 06:10:08;;;;;;;25.27;11.43;;;3.50;99.90;;;;;;4482358;27;657624;-61
2020/12/30 06:12:58;;;;;;;58.00;20.43;;;3.40;99.90;;;;;;4491667;27;658135;-59
2020/12/30 06:15:45;;;;;;;20.03;9.00;;;3.40;99.90;;;;;;4468386;27;659693;-59
2020/12/30 06:18:32;;;;;;;25.23;9.73;;;3.50;99.90;;;;;;4484665;27;656599;-61
2020/12/30 06:21:20;;;;;;;24.70;11.80;;;3.30;99.90;;;;;;4500008;27;658308;-60
2020/12/30 06:24:07;;;;;;;23.80;12.50;;;3.20;99.90;;;;;;4482952;27;657584;-61
2020/12/30 06:26:54;;;;;;;24.20;10.98;;;3.20;99.90;;;;;;4489503;27;658124;-60
2020/12/30 06:29:41;;;;;;;31.77;14.20;;;3.10;99.90;;;;;;4495208;27;657679;-60
2020/12/30 06:32:29;;;;;;;23.87;12.30;;;3.20;99.90;;;;;;4470487;27;658847;-60
2020/12/30 06:35:25;;;;;;;40.43;17.40;;;3.20;99.90;;;;;;4493156;27;658939;-60
2020/12/30 06:38:20;;;;;;;33.80;16.40;;;3.20;99.90;;;;;;4457346;27;657279;-60
2020/12/30 06:41:08;;;;;;;27.87;13.77;;;3.20;99.90;;;;;;4448086;27;657438;-61
2020/12/30 06:43:54;;;;;;;30.40;14.90;;;3.20;99.90;;;;;;4493713;27;658617;-60
2020/12/30 06:46:41;;;;;;;31.67;14.83;;;3.20;99.90;;;;;;4487102;27;657291;-62
2020/12/30 06:49:28;;;;;;;35.70;15.13;;;3.30;99.90;;;;;;4464143;27;657410;-60
2020/12/30 06:52:33;;;;;;;27.93;13.77;;;3.20;99.90;;;;;;4494391;27;657642;-60
2020/12/30 06:55:45;;;;;;;32.93;14.13;;;3.30;99.90;;;;;;4466582;27;658324;-59
2020/12/30 06:58:48;;;;;;;35.73;14.43;;;3.20;99.90;;;;;;4479280;27;657476;-62
2020/12/30 07:01:54;;;;;;;31.73;15.17;;;3.20;99.90;;;;;;4456533;27;657956;-60
2020/12/30 07:04:41;;;;;;;56.97;21.50;;;3.40;99.90;;;;;;4476781;27;658022;-60
2020/12/30 07:07:28;;;;;;;65.23;28.03;;;3.40;99.90;;;;;;4468086;27;658465;-60
2020/12/30 07:10:24;;;;;;;59.17;25.47;;;3.30;99.90;;;;;;4495933;27;658905;-59
2020/12/30 07:13:25;;;;;;;81.50;33.73;;;3.20;99.90;;;;;;4463785;27;657936;-60
2020/12/30 07:16:13;;;;;;;60.33;26.47;;;3.20;99.90;;;;;;4448906;27;657825;-60
2020/12/30 07:19:00;;;;;;;47.77;21.37;;;3.30;99.90;;;;;;4497610;27;659146;-59
2020/12/30 07:21:56;;;;;;;44.60;21.10;;;3.30;99.90;;;;;;4474280;27;657828;-61
2020/12/30 07:24:45;;;;;;;43.03;20.03;;;3.30;99.90;;;;;;4475167;27;657701;-61
2020/12/30 07:27:32;;;;;;;38.53;16.67;;;3.30;99.90;;;;;;4476062;27;657822;-62
2020/12/30 07:30:20;;;;;;;31.37;15.20;;;3.40;99.90;;;;;;4494509;27;657877;-60
2020/12/30 07:33:08;;;;;;;29.33;13.03;;;3.30;99.90;;;;;;4477396;27;657782;-61
2020/12/30 07:36:02;;;;;;;28.53;12.37;;;3.30;99.90;;;;;;4488745;27;658418;-60
2020/12/30 07:38:49;;;;;;;27.50;12.20;;;3.30;99.90;;;;;;4424797;28;658130;-60
2020/12/30 07:41:36;;;;;;;30.07;12.87;;;3.40;99.90;;;;;;4473086;27;657815;-60
2020/12/30 07:44:23;;;;;;;22.23;11.97;;;3.40;99.90;;;;;;4468558;27;658256;-60
2020/12/30 07:47:11;;;;;;;32.63;14.43;;;3.40;99.90;;;;;;4488600;27;658668;-61
2020/12/30 07:49:59;;;;;;;75.30;30.40;;;3.40;99.90;;;;;;4466875;27;657838;-61
2020/12/30 07:52:51;;;;;;;67.65;26.58;;;3.40;99.90;;;;;;4488724;27;658643;-60
2020/12/30 07:55:40;;;;;;;48.33;20.73;;;3.50;99.90;;;;;;4432504;27;658569;-59
2020/12/30 07:58:27;;;;;;;44.90;18.00;;;3.50;99.90;;;;;;4488948;27;657638;-61
2020/12/30 08:01:14;;;;;;;50.90;20.80;;;3.60;99.90;;;;;;4500353;27;658352;-60
2020/12/30 08:04:11;;;;;;;37.73;17.30;;;3.60;99.90;;;;;;4501868;27;659450;-60
2020/12/30 08:06:58;;;;;;;25.37;12.17;;;3.70;99.90;;;;;;4441950;27;658754;-61
2020/12/30 08:09:45;;;;;;;26.27;11.97;;;3.70;99.90;;;;;;4483868;27;658028;-61
2020/12/30 08:12:32;;;;;;;25.60;11.47;;;3.80;99.90;;;;;;4483379;27;657866;-61
2020/12/30 08:15:20;;;;;;;77.80;25.27;;;3.80;99.90;;;;;;4497681;27;658427;-60
2020/12/30 08:18:07;;;;;;;136.93;35.53;;;3.90;99.90;;;;;;4489618;27;657167;-61
2020/12/30 08:20:54;;;;;;;114.57;30.23;;;3.90;99.90;;;;;;4476593;27;659482;-60
2020/12/30 08:23:41;;;;;;;113.30;29.67;;;3.90;99.90;;;;;;4484726;27;660061;-60
2020/12/30 08:26:28;;;;;;;94.67;26.47;;;3.90;99.90;;;;;;4479349;27;658437;-60
2020/12/30 08:29:17;;;;;;;69.00;23.43;;;3.90;99.90;;;;;;4493216;27;658112;-60
2020/12/30 08:32:15;;;;;;;51.45;18.70;;;3.90;99.90;;;;;;4462226;27;658663;-60
2020/12/30 08:35:05;;;;;;;54.33;19.67;;;3.90;99.90;;;;;;4451910;27;657389;-61
2020/12/30 08:38:03;;;;;;;57.53;21.27;;;3.90;99.90;;;;;;4477140;27;657482;-62
2020/12/30 08:40:51;;;;;;;64.67;19.93;;;3.80;99.90;;;;;;4454862;27;659018;-60
2020/12/30 08:43:41;;;;;;;50.50;17.97;;;3.90;99.90;;;;;;4459375;27;657839;-60
2020/12/30 08:46:30;;;;;;;48.27;20.30;;;3.90;99.90;;;;;;4461397;27;658949;-61
2020/12/30 08:49:19;;;;;;;46.70;18.63;;;3.90;99.90;;;;;;4487886;27;657407;-61
2020/12/30 08:52:17;;;;;;;37.97;15.93;;;3.90;99.90;;;;;;4492305;27;658028;-60
2020/12/30 08:55:05;;;;;;;44.70;17.80;;;4.00;99.90;;;;;;4446832;27;659621;-59
2020/12/30 08:57:52;;;;;;;51.67;17.63;;;4.10;99.90;;;;;;4478123;27;658772;-61
2020/12/30 09:00:40;;;;;;;34.13;14.47;;;4.10;99.90;;;;;;4495208;27;657220;-60
2020/12/30 09:03:28;;;;;;;50.27;20.03;;;4.20;99.90;;;;;;4469362;27;659138;-61
2020/12/30 09:06:30;;;;;;;46.15;18.75;;;4.20;99.90;;;;;;4496122;27;660606;-60
2020/12/30 09:09:19;;;;;;;52.40;21.80;;;4.20;99.90;;;;;;4465187;27;657739;-61
2020/12/30 09:12:07;;;;;;;57.33;23.83;;;4.20;99.90;;;;;;4487070;27;657383;-59
2020/12/30 09:14:54;;;;;;;41.80;18.70;;;4.30;99.90;;;;;;4481523;27;658923;-59
2020/12/30 09:17:41;;;;;;;220.30;49.83;;;4.30;99.90;;;;;;4490841;27;657514;-59
2020/12/30 09:20:31;;;;;;;182.80;61.00;;;4.30;99.90;;;;;;4479504;27;658723;-61
2020/12/30 09:23:21;;;;;;;63.63;25.87;;;4.30;99.90;;;;;;4477770;27;658680;-59
2020/12/30 09:26:08;;;;;;;36.83;17.33;;;4.30;99.90;;;;;;4465400;27;658280;-60
2020/12/30 09:28:56;;;;;;;36.00;17.60;;;4.40;99.90;;;;;;4500799;27;658527;-59
2020/12/30 09:31:51;;;;;;;43.93;19.27;;;4.30;99.90;;;;;;4467610;27;658469;-60
2020/12/30 09:34:38;;;;;;;39.63;18.50;;;4.30;99.90;;;;;;4446043;27;658802;-60
2020/12/30 09:37:25;;;;;;;44.23;21.30;;;4.30;99.90;;;;;;4449267;27;658327;-59
2020/12/30 09:40:13;;;;;;;47.93;23.00;;;4.40;99.90;;;;;;4468840;27;657849;-61
2020/12/30 09:43:10;;;;;;;46.83;23.67;;;4.50;99.90;;;;;;4487145;27;658157;-59
2020/12/30 09:46:00;;;;;;;50.17;24.07;;;4.50;99.90;;;;;;4465287;27;657513;-61
2020/12/30 09:48:47;;;;;;;48.78;23.25;;;4.50;99.90;;;;;;4470359;27;659185;-61
2020/12/30 09:51:34;;;;;;;59.03;28.47;;;4.60;99.90;;;;;;4498721;27;658078;-59
2020/12/30 09:54:21;;;;;;;54.50;25.63;;;4.60;99.90;;;;;;4494839;27;657557;-59
2020/12/30 09:57:08;;;;;;;51.97;26.30;;;4.70;99.90;;;;;;4426894;28;657839;-61
2020/12/30 09:59:55;;;;;;;53.17;24.50;;;4.80;99.90;;;;;;4452108;28;657755;-60
2020/12/30 10:02:43;;;;;;;53.25;24.95;;;4.80;99.90;;;;;;4432015;28;657560;-61
2020/12/30 10:05:30;;;;;;;50.23;23.47;;;4.90;99.90;;;;;;4448475;28;658969;-60
2020/12/30 10:08:17;;;;;;;54.33;25.17;;;5.00;99.90;;;;;;4399404;28;658811;-61
2020/12/30 10:11:04;;;;;;;52.73;25.83;;;5.00;99.90;;;;;;4450529;28;657670;-59
2020/12/30 10:13:51;;;;;;;48.13;25.10;;;5.00;99.90;;;;;;4435169;28;657772;-60
2020/12/30 10:16:38;;;;;;;58.07;29.50;;;5.00;99.90;;;;;;4424878;28;658267;-60
2020/12/30 10:19:26;;;;;;;50.97;25.13;;;5.00;99.90;;;;;;4449351;28;658198;-59
2020/12/30 10:22:13;;;;;;;48.60;23.77;;;5.20;99.90;;;;;;4431305;28;657252;-60
2020/12/30 10:25:00;;;;;;;78.53;33.73;;;5.20;99.90;;;;;;4452032;28;659124;-60
2020/12/30 10:27:47;;;;;;;50.10;25.30;;;5.20;99.90;;;;;;4434507;28;657478;-62
2020/12/30 10:30:34;;;;;;;42.03;19.13;;;5.20;99.90;;;;;;4451266;28;659030;-60
2020/12/30 10:33:21;;;;;;;30.67;16.13;;;5.20;99.90;;;;;;4448386;28;658875;-60
2020/12/30 10:36:09;;;;;;;28.30;12.73;;;5.20;99.90;;;;;;4432991;28;658389;-61
2020/12/30 10:38:56;;;;;;;22.13;11.03;;;5.20;99.90;;;;;;4444149;28;657929;-59
2020/12/30 10:41:43;;;;;;;32.37;12.63;;;5.20;99.90;;;;;;4430529;28;658180;-61
2020/12/30 10:44:31;;;;;;;29.03;13.37;;;5.20;99.90;;;;;;4446960;28;657753;-59
2020/12/30 10:47:18;;;;;;;28.47;10.73;;;5.20;99.90;;;;;;4427372;28;657613;-60
2020/12/30 10:50:06;;;;;;;27.33;10.90;;;5.20;99.90;;;;;;4456489;28;658785;-60
2020/12/30 10:52:54;;;;;;;28.50;9.53;;;5.20;99.90;;;;;;4422563;28;658545;-60
2020/12/30 10:55:41;;;;;;;24.37;8.83;;;5.20;99.90;;;;;;4475696;27;657051;-60
2020/12/30 10:58:29;;;;;;;21.65;8.45;;;5.20;99.90;;;;;;4462708;27;656482;-60
2020/12/30 11:01:16;;;;;;;20.80;8.03;;;5.20;99.90;;;;;;4501520;27;657137;-59
2020/12/30 11:04:03;;;;;;;15.90;7.10;;;5.10;99.90;;;;;;4487958;27;657985;-61
2020/12/30 11:06:50;;;;;;;20.60;7.10;;;5.20;99.90;;;;;;4507108;27;658046;-59
2020/12/30 11:09:38;;;;;;;16.53;6.47;;;5.10;99.90;;;;;;4491241;27;657777;-61
2020/12/30 11:12:25;;;;;;;21.30;7.20;;;5.10;99.90;;;;;;4498078;27;657224;-59
2020/12/30 11:15:12;;;;;;;17.73;7.03;;;5.10;99.90;;;;;;4448761;27;656648;-61
2020/12/30 11:17:59;;;;;;;14.30;5.90;;;5.10;99.90;;;;;;4508129;27;656242;-60
2020/12/30 11:20:46;;;;;;;14.13;6.10;;;5.20;99.90;;;;;;4493453;27;658274;-61
2020/12/30 11:23:33;;;;;;;13.83;5.70;;;5.20;99.90;;;;;;4470614;27;656696;-60
2020/12/30 11:26:21;;;;;;;12.03;5.80;;;5.10;99.90;;;;;;4497175;27;658503;-60
2020/12/30 11:29:08;;;;;;;15.80;7.17;;;5.10;99.90;;;;;;4472421;27;656823;-60
2020/12/30 11:31:55;;;;;;;22.30;8.23;;;5.00;99.90;;;;;;4494554;27;658917;-60
2020/12/30 11:34:42;;;;;;;21.50;8.13;;;5.00;99.90;;;;;;4490139;27;656359;-61
2020/12/30 11:37:29;;;;;;;16.33;7.47;;;5.00;99.90;;;;;;4494562;27;656080;-59
2020/12/30 11:40:16;;;;;;;18.67;7.10;;;5.00;99.90;;;;;;4481344;27;658053;-59
2020/12/30 11:43:04;;;;;;;16.40;8.00;;;5.00;99.90;;;;;;4469485;27;656470;-60
2020/12/30 11:45:51;;;;;;;18.17;8.40;;;5.10;99.90;;;;;;4483149;27;657651;-59
2020/12/30 11:48:38;;;;;;;19.57;8.47;;;5.10;99.90;;;;;;4471740;27;656401;-60
2020/12/30 11:51:25;;;;;;;29.33;10.70;;;5.10;99.90;;;;;;4495392;27;657747;-60
2020/12/30 11:54:12;;;;;;;24.27;11.13;;;5.10;99.90;;;;;;4501841;27;657112;-61
2020/12/30 11:56:59;;;;;;;22.37;11.47;;;5.10;99.90;;;;;;4507659;27;659085;-61
2020/12/30 11:59:47;;;;;;;27.07;11.33;;;5.10;99.90;;;;;;4488406;27;657695;-59
2020/12/30 12:02:34;;;;;;;27.00;12.53;;;5.20;99.90;;;;;;4475926;27;659158;-59
2020/12/30 12:05:21;;;;;;;31.83;14.83;;;5.30;99.90;;;;;;4501005;27;658068;-59
2020/12/30 12:08:08;;;;;;;30.63;14.77;;;5.20;99.90;;;;;;4470936;27;657538;-60
2020/12/30 12:10:55;;;;;;;30.67;13.30;;;5.10;99.90;;;;;;4493909;27;657993;-59
2020/12/30 12:13:42;;;;;;;27.83;11.88;;;5.10;99.90;;;;;;4475894;27;658287;-61
2020/12/30 12:16:30;;;;;;;26.13;11.53;;;5.10;99.90;;;;;;4504262;27;657316;-60
2020/12/30 12:19:17;;;;;;;25.63;11.48;;;5.00;99.90;;;;;;4481987;27;657704;-61
2020/12/30 12:22:04;;;;;;;18.20;8.97;;;5.10;99.90;;;;;;4497769;27;657234;-59
2020/12/30 12:24:51;;;;;;;20.17;9.97;;;5.10;99.90;;;;;;4491716;27;656543;-59
2020/12/30 12:27:38;;;;;;;22.47;10.87;;;5.10;99.90;;;;;;4472990;27;656448;-60
2020/12/30 12:30:25;;;;;;;21.80;10.13;;;5.10;99.90;;;;;;4494205;27;658920;-59
2020/12/30 12:33:13;;;;;;;23.33;10.20;;;5.10;99.90;;;;;;4462991;27;657547;-60
2020/12/30 12:36:00;;;;;;;21.87;11.43;;;5.20;99.90;;;;;;4464734;27;658547;-59
2020/12/30 12:38:48;;;;;;;25.13;12.30;;;5.00;99.90;;;;;;4473267;27;659120;-61
2020/12/30 12:41:35;;;;;;;23.83;11.60;;;4.90;99.90;;;;;;4486968;27;659774;-59
2020/12/30 12:44:22;;;;;;;25.23;12.27;;;4.80;99.90;;;;;;4477194;27;657163;-61
2020/12/30 12:47:09;;;;;;;27.37;13.23;;;4.70;99.90;;;;;;4491770;27;658178;-60
2020/12/30 12:49:57;;;;;;;30.27;12.97;;;4.70;99.90;;;;;;4475166;27;658095;-59
2020/12/30 12:52:47;;;;;;;25.37;12.20;;;4.80;99.90;;;;;;4462876;27;658995;-60
2020/12/30 12:55:35;;;;;;;24.03;12.10;;;4.70;99.90;;;;;;4463921;27;659188;-59
2020/12/30 12:58:23;;;;;;;26.80;12.10;;;4.70;99.90;;;;;;4465789;27;657594;-61
2020/12/30 13:01:11;;;;;;;21.17;11.63;;;4.60;99.90;;;;;;4486706;27;659055;-59
2020/12/30 13:03:58;;;;;;;15.80;8.50;;;4.60;99.90;;;;;;4450891;27;658647;-60
2020/12/30 13:06:46;;;;;;;21.90;11.60;;;4.60;99.90;;;;;;4470663;28;657362;-60
2020/12/30 13:09:33;;;;;;;20.07;9.03;;;4.60;99.90;;;;;;4443460;27;658284;-61
2020/12/30 13:12:20;;;;;;;23.63;11.50;;;4.60;99.90;;;;;;4483899;27;658482;-59
2020/12/30 13:15:07;;;;;;;25.83;11.57;;;4.60;99.90;;;;;;4459303;27;657205;-60
2020/12/30 13:17:54;;;;;;;22.07;11.07;;;4.50;99.90;;;;;;4487233;27;658809;-59
2020/12/30 13:20:41;;;;;;;22.87;11.30;;;4.50;99.90;;;;;;4491285;27;657804;-59
2020/12/30 13:23:29;;;;;;;24.33;12.37;;;4.60;99.90;;;;;;4464708;27;658450;-60
2020/12/30 13:26:16;;;;;;;24.37;11.00;;;4.50;99.90;;;;;;4486797;27;658011;-59
2020/12/30 13:29:03;;;;;;;24.50;12.73;;;4.50;99.90;;;;;;4476501;27;658741;-60
2020/12/30 13:31:50;;;;;;;25.50;12.53;;;4.40;99.90;;;;;;4483614;27;658231;-59
2020/12/30 13:34:37;;;;;;;20.77;11.43;;;4.40;99.90;;;;;;4477305;27;657641;-61
2020/12/30 13:37:25;;;;;;;26.23;11.07;;;4.30;99.90;;;;;;4498338;27;659619;-60
2020/12/30 13:40:15;;;;;;;23.10;11.10;;;4.40;99.90;;;;;;4490189;27;658299;-60
2020/12/30 13:43:03;;;;;;;21.97;10.63;;;4.40;99.90;;;;;;4480535;27;657653;-61
2020/12/30 13:45:50;;;;;;;23.87;10.23;;;4.50;99.90;;;;;;4498206;27;658964;-59
2020/12/30 13:48:37;;;;;;;23.47;11.07;;;4.60;99.90;;;;;;4484504;27;657522;-62
2020/12/30 13:51:24;;;;;;;23.47;11.40;;;4.50;99.90;;;;;;4500932;27;657097;-59
2020/12/30 13:54:11;;;;;;;23.87;11.27;;;4.40;99.90;;;;;;4494755;27;658049;-60
2020/12/30 13:56:59;;;;;;;22.53;10.53;;;4.40;99.90;;;;;;4470587;27;657582;-60
2020/12/30 13:59:46;;;;;;;21.55;10.88;;;4.40;99.90;;;;;;4486733;27;658274;-61
2020/12/30 14:02:33;;;;;;;23.90;10.70;;;4.30;99.90;;;;;;4453840;27;657907;-60
2020/12/30 14:05:20;;;;;;;21.60;10.03;;;4.30;99.90;;;;;;4492205;27;659276;-59
2020/12/30 14:08:07;;;;;;;22.73;10.10;;;4.30;99.90;;;;;;4468898;27;658296;-61
2020/12/30 14:10:54;;;;;;;25.63;10.73;;;4.30;99.90;;;;;;4501759;27;658605;-59
2020/12/30 14:13:43;;;;;;;22.40;11.10;;;4.30;99.90;;;;;;4491145;27;657673;-60
2020/12/30 14:16:29;;;;;;;22.77;10.77;;;4.30;99.90;;;;;;4462058;27;658950;-60